Aérodrome :
LOGIN :

S'inscrire | Disclaimer

   EN    FR    IT 

 










Légende :    VFR   VFR Marginal   IFR   IFR Intensif   IFR Très Intensif
Visi : 
Plafond : 
>= 8 km
>= 3000ft
5 à 8 km
1000 à 3000 ft
1500m à 5 km
500 à 1000 ft
800 à 1500m
200 à 500 ft
< 800m
< 200 ft
Symboles :   Orages  Brouillard  Fortes neiges  Fortes précipitations  Vent > 20 kt
SIGMETs :   Divers  Orages  Givrage  Turbulence  Onde Orograph.  Cendres Volcan.







- Altitude de l'aérodrome : 348 ft
- Code IATA : LDV
- Voir les cartes d'approche


LFRJ - Landivisiau

DERNIER METAR :
  • 172100Z AUTO 11003KT 3600 0350 R26/0400D R08/P2000 BCFG FEW040 08/07 Q1028

METARs EXPIRÉS :
  • 172030Z AUTO 11003KT 3000 1100 R26/1100U R08/0800U BR FEW042 08/07 Q1028
  • 172000Z AUTO 14003KT 4600 BR FEW043 08/07 Q1028
  • 171930Z AUTO 10006KT 5000 BR FEW027 SCT046 BKN220 09/08 Q1028
  • 171900Z AUTO 07004KT 5000 0600 R26/P2000 R08/0750D BCFG FEW031 08/07 Q1028
  • 171830Z AUTO 07005KT 4900 R08/1100U BR NSC 09/08 Q1028

TAF TAF LFRJ
Valide du 17 à 15h jusqu'au 18 à 00h UTC


171400Z 1715/1724 VRB03KT CAVOK
BECMG 1717/1719 5000 NSC
TEMPO 1719/1724 2000 BR
Pas de NOTAMs connus pour ce terrain.



MET'MAP, la Météo Aéronautique d'un coup d'oeil ! - Copyright ORBIFLY Décembre 2007 - Disclaimer

ORBIFLY MET'MAP TEAM :

Programmation & Développement : Alexandra Zaïnal
Conception & Développement : Baudouin d'Aumeries
Co-Programmation & Développement : Marc-Olivier Méhu
Soutien technique & logistique : Manuel Goepfert

Contact : metmap@orbifly.com




SOURCES & CREDITS :

   NOAA